Etusivu
METAR-TAF:

METAR-TAF

Lentoasemat :

Cuneo, Italia

Leveyspiiri: 44-32-47N, Pituuspiiri: 007-37-20E, korkeus merenpinnasta: 386 m

Tämänhetkinen sää

Tämä raportti tehtiin 1 tunti ja 58 minuuttia sitten, kello 19.50 UTC
Tuuli 6 kn etelästä
Lämpötila 19°C
Kosteus 73%
Ilmanpaine 1011 hPa
Näkyvyys 10 km tai enemmän
Hajanaisia pilviä 7000 ft:n korkeudessa

METAR: LIMZ 221950Z 18006KT 9999 SCT070 19/14 Q1011

Aika: 23:48 (21:48 UTC)

Sääennuste

Tämä raportti tehtiin 4 tuntia ja 48 minuuttia sitten, kello 17.00 UTC
Ennuste voimassa 22. päivästä klo 18 UTC - 23. päivään klo 18 UTC
Tuuli 5 kn eri suunnista
Näkyvyys 10 km tai enemmän
Hajanaisia pilviä 2000 ft:n korkeudessa
Hajanaisia pilviä 6000 ft:n korkeudessa

TAF: LIMZ 221700Z 2218/2318 VRB05KT 9999 SCT020 SCT060

Säähavainnot ja -ennusteet yli 4000 lentoasemalta (METAR- ja TAF-raportit).

Käytössä olevat sääasemat on merkitty karttaan keltaisilla ja punaisilla pisteillä.

Aseta hiiri pisteen päälle nähdäksesi sääaseman nimen.

Klikkaa sitten nähdäksesi säähavainnot ja -ennusteet.

Kartan vaihtaminen: klikkaa mustalla rastilla varustettuja vihreitä pisteitä, niin voit zoomata sisään; viivalla varustettua vihreää pistettä, niin voit zoomata ulos tai vihreitä nuolia, niin pääset viereisille kartoille.


METAR-TAF: